createdAt,value
2023-02-07T00:00:53.325Z,28.30
2023-02-07T00:03:35.628Z,29.90
2023-02-07T00:06:11.504Z,31.60
2023-02-07T00:08:38.152Z,30.10
2023-02-07T00:11:15.682Z,28.00
2023-02-07T00:13:46.100Z,28.60
2023-02-07T00:16:12.700Z,29.00
2023-02-07T00:18:39.746Z,29.30
2023-02-07T00:21:08.892Z,26.60
2023-02-07T00:23:35.853Z,27.40
2023-02-07T00:26:02.953Z,32.90
2023-02-07T00:28:29.618Z,31.80
2023-02-07T00:31:24.647Z,20.70
2023-02-07T00:33:52.928Z,19.40
2023-02-07T00:36:21.989Z,27.90
2023-02-07T00:38:48.979Z,31.10
2023-02-07T00:41:17.789Z,21.80
2023-02-07T00:43:45.434Z,27.70
2023-02-07T00:46:11.909Z,25.10
2023-02-07T00:48:40.960Z,24.30
2023-02-07T00:51:09.694Z,23.70
2023-02-07T00:53:36.292Z,31.30
2023-02-07T00:56:02.967Z,25.30
2023-02-07T00:58:29.725Z,24.40
2023-02-07T01:00:56.243Z,25.40
2023-02-07T01:03:22.681Z,25.40
2023-02-07T01:05:49.513Z,22.00
2023-02-07T01:08:16.116Z,23.00
2023-02-07T01:10:43.481Z,28.50
2023-02-07T01:13:10.485Z,25.90
2023-02-07T01:15:38.534Z,27.90
2023-02-07T01:18:05.219Z,26.80
2023-02-07T01:20:31.662Z,34.20
2023-02-07T01:22:58.017Z,34.70
2023-02-07T01:25:24.518Z,32.40
2023-02-07T01:27:51.498Z,27.60
2023-02-07T01:30:18.175Z,41.50
2023-02-07T01:32:44.632Z,40.30
2023-02-07T01:35:10.989Z,37.70
2023-02-07T01:37:37.409Z,42.80
2023-02-07T01:40:04.246Z,40.40
2023-02-07T01:42:30.625Z,30.70
2023-02-07T01:45:23.291Z,37.70
2023-02-07T01:47:51.875Z,40.10
2023-02-07T01:50:18.347Z,41.10
2023-02-07T01:52:44.764Z,33.10
2023-02-07T01:55:19.116Z,44.10
2023-02-07T01:57:45.565Z,48.20
2023-02-07T02:00:14.176Z,39.80
2023-02-07T02:02:43.374Z,42.90
2023-02-07T02:05:10.548Z,43.40
2023-02-07T02:07:37.316Z,45.80
2023-02-07T02:10:13.417Z,52.70
2023-02-07T02:13:10.936Z,49.70
2023-02-07T02:15:46.986Z,38.20
2023-02-07T02:18:40.688Z,29.80
2023-02-07T02:21:36.798Z,38.90
2023-02-07T02:24:51.108Z,19.70
2023-02-07T02:27:55.411Z,30.30
2023-02-07T02:30:57.614Z,39.50
2023-02-07T02:33:32.649Z,47.90
2023-02-07T02:36:36.896Z,57.70
2023-02-07T02:39:25.760Z,54.10
2023-02-07T02:42:13.512Z,45.30
2023-02-07T02:44:48.780Z,48.30
2023-02-07T02:47:15.582Z,50.80
2023-02-07T02:49:42.129Z,55.40
2023-02-07T02:52:08.634Z,57.00
2023-02-07T02:54:37.137Z,57.80
2023-02-07T02:57:30.354Z,87.10
2023-02-07T03:00:08.793Z,85.30
2023-02-07T03:02:41.528Z,72.70
2023-02-07T03:05:27.700Z,69.40
2023-02-07T03:08:25.292Z,63.20
2023-02-07T03:11:18.575Z,60.10
2023-02-07T03:14:09.090Z,54.30
2023-02-07T03:16:48.342Z,53.60
2023-02-07T03:19:21.710Z,54.00
2023-02-07T03:21:55.457Z,47.60
2023-02-07T03:24:33.139Z,56.90
2023-02-07T03:27:02.575Z,53.30
2023-02-07T03:29:30.207Z,61.80
2023-02-07T03:31:58.057Z,59.00
2023-02-07T03:34:31.366Z,63.20
2023-02-07T03:37:02.968Z,60.10
2023-02-07T03:39:29.335Z,70.80
2023-02-07T03:41:59.302Z,56.00
2023-02-07T03:44:26.978Z,63.50
2023-02-07T03:46:54.155Z,70.40
2023-02-07T03:49:20.773Z,80.50
2023-02-07T03:51:48.428Z,72.10
2023-02-07T03:54:14.968Z,71.80
2023-02-07T03:56:41.587Z,74.00
2023-02-07T03:59:08.296Z,67.00
2023-02-07T04:01:40.067Z,71.90
2023-02-07T04:04:07.167Z,65.90
2023-02-07T04:06:33.855Z,77.50
2023-02-07T04:09:00.308Z,77.10
2023-02-07T04:11:26.802Z,68.50
2023-02-07T04:13:53.285Z,60.50
2023-02-07T04:16:20.132Z,70.30
2023-02-07T04:18:46.702Z,65.50
2023-02-07T04:21:13.122Z,71.60
2023-02-07T04:23:39.660Z,63.60
2023-02-07T04:26:06.199Z,47.40
2023-02-07T04:28:32.693Z,51.90
2023-02-07T04:30:59.376Z,63.80
2023-02-07T04:33:26.140Z,54.60
2023-02-07T04:35:57.292Z,57.50
2023-02-07T04:38:23.898Z,68.30
2023-02-07T04:40:50.821Z,71.00
2023-02-07T04:43:17.486Z,67.40
2023-02-07T04:45:47.426Z,65.90
2023-02-07T04:48:14.175Z,68.70
2023-02-07T04:50:40.824Z,63.40
2023-02-07T04:53:07.280Z,64.40
2023-02-07T04:55:35.173Z,53.60
2023-02-07T04:58:01.568Z,57.30
2023-02-07T05:00:28.205Z,55.70
2023-02-07T05:02:54.570Z,49.70
2023-02-07T05:05:21.234Z,53.20
2023-02-07T05:07:47.598Z,38.40
2023-02-07T05:10:14.163Z,43.50
2023-02-07T05:12:40.798Z,68.20
2023-02-07T05:15:07.847Z,81.40
2023-02-07T05:17:34.341Z,75.20
2023-02-07T05:20:01.691Z,72.40
2023-02-07T05:22:28.042Z,77.60
2023-02-07T05:24:54.669Z,82.10
2023-02-07T05:27:21.303Z,98.40
2023-02-07T05:29:47.654Z,173.30
2023-02-07T05:32:34.273Z,153.60
2023-02-07T05:35:00.909Z,99.30
2023-02-07T05:37:27.438Z,75.60
2023-02-07T05:39:53.913Z,63.30
2023-02-07T05:42:20.411Z,76.30
2023-02-07T05:44:46.988Z,76.10
2023-02-07T05:47:13.463Z,73.70
2023-02-07T05:49:39.864Z,78.20
2023-02-07T05:52:06.504Z,80.70
2023-02-07T05:54:32.962Z,81.80
2023-02-07T05:56:59.368Z,79.60
2023-02-07T05:59:25.954Z,70.60
2023-02-07T06:01:52.404Z,74.20
2023-02-07T06:04:18.873Z,79.70
2023-02-07T06:06:45.517Z,70.00
2023-02-07T06:09:12.451Z,55.30
2023-02-07T06:11:38.904Z,78.80
2023-02-07T06:14:05.627Z,64.70
2023-02-07T06:16:32.254Z,55.60
2023-02-07T06:18:58.744Z,41.50
2023-02-07T06:21:32.004Z,49.70
2023-02-07T06:24:04.782Z,45.30
2023-02-07T06:26:31.470Z,40.50
2023-02-07T06:28:57.910Z,33.50
2023-02-07T06:31:24.499Z,49.90
2023-02-07T06:33:51.228Z,52.30
2023-02-07T06:36:17.776Z,39.80
2023-02-07T06:38:44.405Z,39.50
2023-02-07T06:41:10.738Z,49.60
2023-02-07T06:43:39.126Z,40.90
2023-02-07T06:46:06.381Z,37.80
2023-02-07T06:48:32.807Z,39.70
2023-02-07T06:50:59.768Z,38.80
2023-02-07T06:53:27.656Z,40.60
2023-02-07T06:55:54.153Z,40.10
2023-02-07T06:58:21.106Z,54.30
2023-02-07T07:00:48.059Z,51.40
2023-02-07T07:03:15.414Z,55.90
2023-02-07T07:05:42.464Z,46.30
2023-02-07T07:08:09.903Z,51.80
2023-02-07T07:10:36.484Z,63.20
2023-02-07T07:13:04.210Z,91.60
2023-02-07T07:15:30.742Z,58.40
2023-02-07T07:17:57.325Z,61.10
2023-02-07T07:20:23.701Z,55.60
2023-02-07T07:22:50.340Z,60.50
2023-02-07T07:25:16.796Z,55.70
2023-02-07T07:27:43.301Z,64.80
2023-02-07T07:30:10.928Z,56.20
2023-02-07T07:32:37.588Z,68.50
2023-02-07T07:35:04.887Z,58.30
2023-02-07T07:37:31.638Z,47.30
2023-02-07T07:39:58.198Z,50.90
2023-02-07T07:42:24.676Z,39.90
2023-02-07T07:45:03.616Z,47.90
2023-02-07T07:47:30.132Z,48.20
2023-02-07T07:49:56.687Z,40.30
2023-02-07T07:52:23.249Z,47.40
2023-02-07T07:54:49.721Z,49.60
2023-02-07T07:57:16.395Z,52.80
2023-02-07T07:59:42.740Z,50.70
2023-02-07T08:02:12.245Z,49.00
2023-02-07T08:04:38.721Z,56.00
2023-02-07T08:07:05.315Z,55.70
2023-02-07T08:09:31.914Z,47.00
2023-02-07T08:11:58.520Z,63.80
2023-02-07T08:14:24.965Z,69.20
2023-02-07T08:16:51.340Z,70.40
2023-02-07T08:19:18.025Z,71.10
2023-02-07T08:21:44.901Z,50.70
2023-02-07T08:24:11.543Z,58.30
2023-02-07T08:26:38.047Z,48.30
2023-02-07T08:29:04.462Z,70.40
2023-02-07T08:31:31.264Z,57.70
2023-02-07T08:33:57.892Z,64.30
2023-02-07T08:36:24.468Z,67.60
2023-02-07T08:38:51.432Z,65.10
2023-02-07T08:41:18.049Z,46.40
2023-02-07T08:43:44.474Z,54.20
2023-02-07T08:46:11.126Z,56.40
2023-02-07T08:48:37.718Z,46.80
2023-02-07T08:51:08.228Z,48.90
2023-02-07T08:53:34.738Z,49.00
2023-02-07T08:56:01.327Z,40.70
2023-02-07T08:58:27.822Z,35.60
2023-02-07T09:00:54.438Z,52.00
2023-02-07T09:03:21.259Z,57.10
2023-02-07T09:05:47.804Z,35.80
2023-02-07T09:08:14.320Z,46.30
2023-02-07T09:10:41.409Z,44.10
2023-02-07T09:13:08.243Z,46.20
2023-02-07T09:15:35.049Z,52.50
2023-02-07T09:18:01.628Z,38.60
2023-02-07T09:20:28.143Z,43.10
2023-02-07T09:23:13.011Z,44.60
2023-02-07T09:25:40.786Z,46.50
2023-02-07T09:28:08.842Z,50.10
2023-02-07T09:30:35.548Z,36.10
2023-02-07T09:33:02.190Z,42.50
2023-02-07T09:35:28.593Z,47.80
2023-02-07T09:37:55.448Z,48.00
2023-02-07T09:40:22.139Z,46.10
2023-02-07T09:43:26.754Z,43.10
2023-02-07T09:45:56.505Z,42.60
2023-02-07T09:48:28.898Z,47.20
2023-02-07T09:51:00.210Z,46.20
2023-02-07T09:53:44.219Z,43.20
2023-02-07T09:56:10.919Z,38.90
2023-02-07T09:58:46.934Z,38.90
2023-02-07T10:01:23.858Z,44.70
2023-02-07T10:04:22.800Z,41.30
2023-02-07T10:06:56.334Z,40.70
2023-02-07T10:09:37.511Z,36.90
2023-02-07T10:12:25.283Z,41.50
2023-02-07T10:15:34.660Z,37.90
2023-02-07T10:18:22.627Z,30.70
2023-02-07T10:21:05.202Z,32.00
2023-02-07T10:24:02.277Z,30.90
2023-02-07T10:26:37.865Z,34.00
2023-02-07T10:29:44.670Z,35.80
2023-02-07T10:32:23.933Z,30.90
2023-02-07T10:34:55.620Z,34.00
2023-02-07T10:37:24.511Z,32.60
2023-02-07T10:40:21.392Z,34.50
2023-02-07T10:42:56.926Z,31.60
2023-02-07T10:45:23.404Z,31.70
2023-02-07T10:47:49.829Z,32.30
2023-02-07T10:50:29.348Z,30.30
2023-02-07T10:52:57.559Z,33.50
2023-02-07T10:55:53.024Z,29.50
2023-02-07T10:58:24.019Z,25.70
2023-02-07T11:00:52.064Z,24.70
2023-02-07T11:03:22.760Z,28.10
2023-02-07T11:05:54.934Z,26.30
2023-02-07T11:08:23.966Z,29.30
2023-02-07T11:11:12.562Z,29.80
2023-02-07T11:13:47.240Z,25.70
2023-02-07T11:16:15.833Z,23.50
2023-02-07T11:19:02.133Z,27.40
2023-02-07T11:21:44.334Z,24.90
2023-02-07T11:24:14.367Z,24.30
2023-02-07T11:26:56.694Z,21.90
2023-02-07T11:29:24.288Z,21.80
2023-02-07T11:31:51.895Z,19.80
2023-02-07T11:34:45.930Z,19.30
2023-02-07T11:37:29.935Z,22.50
2023-02-07T11:40:18.390Z,22.30
2023-02-07T11:42:48.021Z,19.00
2023-02-07T11:45:17.100Z,19.00
2023-02-07T11:47:45.484Z,20.80
2023-02-07T11:50:21.667Z,18.10
2023-02-07T11:52:57.591Z,16.70
2023-02-07T11:55:35.368Z,17.50
2023-02-07T11:58:23.180Z,17.40
2023-02-07T12:00:50.076Z,16.60
2023-02-07T12:03:25.856Z,15.40
2023-02-07T12:05:58.512Z,16.20
2023-02-07T12:08:28.190Z,14.60
2023-02-07T12:11:00.785Z,14.90
2023-02-07T12:13:36.634Z,15.00
2023-02-07T12:16:30.688Z,16.40
2023-02-07T12:19:21.409Z,16.00
2023-02-07T12:22:05.393Z,14.90
2023-02-07T12:24:40.134Z,14.60
2023-02-07T12:27:14.912Z,14.20
2023-02-07T12:30:15.833Z,15.10
2023-02-07T12:32:54.885Z,13.20
2023-02-07T12:35:45.728Z,15.50
2023-02-07T12:38:24.984Z,13.90
2023-02-07T12:41:14.244Z,16.10
2023-02-07T12:44:30.876Z,13.20
2023-02-07T12:47:04.998Z,14.90
2023-02-07T12:50:00.274Z,14.70
2023-02-07T12:53:19.141Z,13.10
2023-02-07T12:56:30.586Z,12.10
2023-02-07T12:59:30.377Z,11.10
2023-02-07T13:02:28.961Z,9.90
2023-02-07T13:05:45.144Z,11.30
2023-02-07T13:08:55.350Z,11.50
2023-02-07T13:12:10.522Z,10.80
2023-02-07T13:15:08.078Z,10.10
2023-02-07T13:17:41.064Z,9.80
2023-02-07T13:20:29.073Z,10.80
2023-02-07T13:23:00.826Z,11.40
2023-02-07T13:25:30.550Z,8.90
2023-02-07T13:27:58.938Z,11.10
2023-02-07T13:30:25.524Z,11.50
2023-02-07T13:32:52.022Z,13.30
2023-02-07T13:35:23.242Z,11.80
2023-02-07T13:38:11.781Z,10.30
2023-02-07T13:40:51.572Z,12.70
2023-02-07T13:44:01.559Z,11.40
2023-02-07T13:47:05.957Z,12.20
2023-02-07T13:49:52.889Z,11.30
2023-02-07T13:52:30.034Z,11.60
2023-02-07T13:55:19.206Z,11.50
2023-02-07T13:58:04.162Z,10.90
2023-02-07T14:00:36.680Z,10.40
2023-02-07T14:03:05.769Z,10.90
2023-02-07T14:05:42.837Z,11.80
2023-02-07T14:08:15.840Z,11.30
2023-02-07T14:10:55.180Z,13.50
2023-02-07T14:13:31.208Z,11.50
2023-02-07T14:16:08.467Z,12.10
2023-02-07T14:18:49.844Z,12.60
2023-02-07T14:21:19.553Z,13.80
2023-02-07T14:24:08.379Z,14.10
2023-02-07T14:26:37.645Z,12.50
2023-02-07T14:29:30.530Z,13.20
2023-02-07T14:32:01.120Z,11.60
2023-02-07T14:34:32.057Z,12.80
2023-02-07T14:36:59.738Z,11.50
2023-02-07T14:39:29.668Z,10.60
2023-02-07T14:42:16.751Z,11.70
2023-02-07T14:44:43.596Z,11.40
2023-02-07T14:47:21.119Z,17.30
2023-02-07T14:49:48.729Z,12.70
2023-02-07T14:52:23.065Z,11.40
2023-02-07T14:54:57.966Z,11.90
2023-02-07T14:58:02.802Z,10.80
2023-02-07T15:00:38.847Z,11.40
2023-02-07T15:03:18.453Z,13.50
2023-02-07T15:05:58.874Z,12.40
2023-02-07T15:08:31.688Z,12.60
2023-02-07T15:11:05.539Z,12.80
2023-02-07T15:13:36.036Z,13.40
2023-02-07T15:16:04.386Z,13.00
2023-02-07T15:18:38.336Z,11.80
2023-02-07T15:21:05.125Z,12.70
2023-02-07T15:23:31.709Z,10.80
2023-02-07T15:26:04.167Z,12.70
2023-02-07T15:28:31.264Z,13.60
2023-02-07T15:30:58.918Z,12.80
2023-02-07T15:33:35.848Z,11.00
2023-02-07T15:36:23.285Z,11.60
2023-02-07T15:38:49.684Z,12.10
2023-02-07T15:41:16.396Z,11.20
2023-02-07T15:44:05.577Z,10.40
2023-02-07T15:46:52.952Z,10.10
2023-02-07T15:49:44.918Z,12.20
2023-02-07T15:52:16.123Z,12.40
2023-02-07T15:54:49.178Z,11.70
2023-02-07T15:57:31.373Z,11.70
2023-02-07T16:00:07.733Z,11.40
2023-02-07T16:02:46.637Z,13.90
2023-02-07T16:05:36.935Z,11.60
2023-02-07T16:08:05.768Z,12.90
2023-02-07T16:10:37.471Z,11.60
2023-02-07T16:13:16.111Z,9.80
2023-02-07T16:15:56.842Z,12.70
2023-02-07T16:18:45.774Z,11.20
2023-02-07T16:21:19.129Z,12.30
2023-02-07T16:23:47.288Z,10.80
2023-02-07T16:26:16.014Z,13.00
2023-02-07T16:28:44.333Z,14.70
2023-02-07T16:31:11.029Z,14.50
2023-02-07T16:33:39.839Z,10.10
2023-02-07T16:36:16.330Z,13.10
2023-02-07T16:38:42.853Z,14.00
2023-02-07T16:41:30.702Z,14.50
2023-02-07T16:44:01.889Z,16.80
2023-02-07T16:46:29.361Z,21.00
2023-02-07T16:48:56.088Z,19.40
2023-02-07T16:51:23.473Z,19.20
2023-02-07T16:53:50.342Z,15.60
2023-02-07T16:56:24.057Z,13.60
2023-02-07T16:58:50.571Z,13.00
2023-02-07T17:01:19.027Z,15.30
2023-02-07T17:03:46.636Z,19.50
2023-02-07T17:06:20.905Z,20.90
2023-02-07T17:08:47.605Z,14.60
2023-02-07T17:11:16.764Z,18.90
2023-02-07T17:13:43.297Z,19.20
2023-02-07T17:16:12.641Z,17.30
2023-02-07T17:18:40.419Z,12.70
2023-02-07T17:21:11.029Z,15.90
2023-02-07T17:23:37.670Z,14.90
2023-02-07T17:26:05.048Z,10.00
2023-02-07T17:28:32.280Z,11.20
2023-02-07T17:30:58.721Z,15.40
2023-02-07T17:33:25.263Z,15.90
2023-02-07T17:35:51.720Z,15.00
2023-02-07T17:38:18.534Z,11.80
2023-02-07T17:40:45.900Z,13.40
2023-02-07T17:43:13.536Z,14.70
2023-02-07T17:45:40.397Z,14.90
2023-02-07T17:48:10.316Z,15.90
2023-02-07T17:50:40.175Z,15.70
2023-02-07T17:53:08.185Z,14.10
2023-02-07T17:55:35.085Z,15.20
2023-02-07T17:58:02.599Z,16.10
2023-02-07T18:00:35.985Z,15.60
2023-02-07T18:03:03.791Z,16.60
2023-02-07T18:05:31.159Z,17.20
2023-02-07T18:07:57.966Z,15.70
2023-02-07T18:10:27.742Z,17.70
2023-02-07T18:12:54.649Z,18.10
2023-02-07T18:15:22.367Z,18.50
2023-02-07T18:17:49.612Z,17.20
2023-02-07T18:20:29.312Z,18.50
2023-02-07T18:22:56.724Z,17.40
2023-02-07T18:25:24.697Z,15.10
2023-02-07T18:27:51.612Z,21.60
2023-02-07T18:30:19.123Z,17.70
2023-02-07T18:32:45.895Z,14.10
2023-02-07T18:35:12.651Z,15.60
2023-02-07T18:37:39.163Z,15.00
2023-02-07T18:40:06.328Z,14.80
2023-02-07T18:42:33.372Z,20.20
2023-02-07T18:44:59.973Z,18.10
2023-02-07T18:47:26.376Z,16.70
2023-02-07T18:49:53.141Z,20.20
2023-02-07T18:52:19.781Z,20.30
2023-02-07T18:54:46.561Z,19.70
2023-02-07T18:57:13.171Z,19.00
2023-02-07T18:59:39.769Z,14.80
2023-02-07T19:02:06.674Z,19.00
2023-02-07T19:04:34.202Z,18.00
2023-02-07T19:07:01.513Z,19.70
2023-02-07T19:09:28.320Z,18.20
2023-02-07T19:11:56.654Z,15.80
2023-02-07T19:14:29.947Z,18.00
2023-02-07T19:16:56.834Z,19.10
2023-02-07T19:19:26.722Z,20.20
2023-02-07T19:21:53.704Z,17.50
2023-02-07T19:24:20.987Z,17.30
2023-02-07T19:26:48.966Z,18.50
2023-02-07T19:29:18.338Z,19.70
2023-02-07T19:31:45.065Z,18.70
2023-02-07T19:34:12.463Z,18.80
2023-02-07T19:36:39.711Z,18.70
2023-02-07T19:39:06.474Z,17.30
2023-02-07T19:41:33.060Z,20.20
2023-02-07T19:43:59.709Z,17.70
2023-02-07T19:46:26.359Z,16.20
2023-02-07T19:48:54.056Z,17.80
2023-02-07T19:51:22.736Z,16.00
2023-02-07T19:53:50.577Z,14.20
2023-02-07T19:56:18.074Z,16.10
2023-02-07T19:58:48.186Z,16.40
2023-02-07T20:01:14.844Z,17.20
2023-02-07T20:03:43.119Z,15.60
2023-02-07T20:06:12.894Z,18.10
2023-02-07T20:08:39.485Z,17.10
2023-02-07T20:11:10.891Z,17.10
2023-02-07T20:13:39.639Z,18.50
2023-02-07T20:16:12.689Z,16.00
2023-02-07T20:18:39.286Z,18.30
2023-02-07T20:21:11.896Z,17.30
2023-02-07T20:23:41.000Z,15.00
2023-02-07T20:26:10.587Z,17.00
2023-02-07T20:28:37.596Z,15.70
2023-02-07T20:31:09.205Z,15.00
2023-02-07T20:33:36.780Z,17.00
2023-02-07T20:36:04.159Z,16.80
2023-02-07T20:38:30.604Z,17.00
2023-02-07T20:41:09.359Z,11.70
2023-02-07T20:43:36.392Z,14.40
2023-02-07T20:46:13.693Z,15.40
2023-02-07T20:48:40.555Z,14.40
2023-02-07T20:51:11.132Z,14.80
2023-02-07T20:53:42.505Z,15.60
2023-02-07T20:56:12.617Z,15.90
2023-02-07T20:58:39.594Z,16.20
2023-02-07T21:01:18.044Z,19.40
2023-02-07T21:03:46.713Z,22.00
2023-02-07T21:06:13.268Z,20.50
2023-02-07T21:08:40.004Z,19.20
2023-02-07T21:11:07.312Z,16.40
2023-02-07T21:13:34.453Z,20.60
2023-02-07T21:16:03.786Z,24.00
2023-02-07T21:18:31.564Z,20.30
2023-02-07T21:20:58.169Z,21.40
2023-02-07T21:23:24.841Z,22.30
2023-02-07T21:25:52.541Z,21.50
2023-02-07T21:28:18.964Z,18.70
2023-02-07T21:30:45.594Z,19.10
2023-02-07T21:33:12.254Z,16.30
2023-02-07T21:35:38.624Z,17.50
2023-02-07T21:38:06.949Z,17.40
2023-02-07T21:40:33.819Z,18.80
2023-02-07T21:43:00.534Z,17.50
2023-02-07T21:45:27.206Z,26.50
2023-02-07T21:47:53.914Z,29.30
2023-02-07T21:50:20.283Z,27.60
2023-02-07T21:52:46.829Z,19.60
2023-02-07T21:55:13.425Z,16.90
2023-02-07T21:57:39.955Z,17.20
2023-02-07T22:00:07.581Z,15.80
2023-02-07T22:02:34.656Z,18.70
2023-02-07T22:05:01.247Z,21.20
2023-02-07T22:07:27.677Z,20.70
2023-02-07T22:09:54.284Z,20.00
2023-02-07T22:12:20.765Z,22.20
2023-02-07T22:14:47.246Z,21.60
2023-02-07T22:17:13.761Z,21.70
2023-02-07T22:19:40.299Z,18.20
2023-02-07T22:22:06.859Z,18.20
2023-02-07T22:24:33.299Z,17.50
2023-02-07T22:26:59.748Z,17.50
2023-02-07T22:29:26.387Z,18.40
2023-02-07T22:31:53.289Z,16.50
2023-02-07T22:34:19.818Z,15.50
2023-02-07T22:36:46.463Z,16.30
2023-02-07T22:39:14.798Z,17.80
2023-02-07T22:41:41.638Z,15.50
2023-02-07T22:44:08.311Z,14.20
2023-02-07T22:46:34.999Z,15.60
2023-02-07T22:49:01.448Z,16.10
2023-02-07T22:51:31.632Z,14.80
2023-02-07T22:54:04.879Z,17.00
2023-02-07T22:56:31.620Z,14.60
2023-02-07T22:58:58.049Z,15.80
2023-02-07T23:01:29.943Z,12.10
2023-02-07T23:03:56.678Z,11.10
2023-02-07T23:06:23.856Z,12.40
2023-02-07T23:08:50.779Z,13.60
2023-02-07T23:11:18.366Z,13.90
2023-02-07T23:13:44.763Z,13.30
2023-02-07T23:16:13.247Z,10.90
2023-02-07T23:18:39.774Z,11.90
2023-02-07T23:21:15.074Z,11.60
2023-02-07T23:23:41.675Z,11.30
2023-02-07T23:26:09.864Z,11.60
2023-02-07T23:28:37.447Z,11.10
2023-02-07T23:31:09.290Z,11.10
2023-02-07T23:33:36.055Z,12.40
2023-02-07T23:36:03.397Z,11.60
2023-02-07T23:38:29.762Z,11.90
2023-02-07T23:40:56.344Z,12.70
2023-02-07T23:43:23.565Z,11.40
2023-02-07T23:45:50.245Z,11.80
2023-02-07T23:48:16.771Z,10.70
2023-02-07T23:50:43.250Z,12.40
2023-02-07T23:53:09.877Z,8.50
2023-02-07T23:55:41.254Z,10.90
2023-02-07T23:58:07.759Z,10.30
